sensor_id;sensor_type;location;lat;lon;timestamp;P1;durP1;ratioP1;P2;durP2;ratioP2
85797;SDS011;76244;53.434;14.484;2024-03-23T00:54:48;10.50;;;3.20;;
85797;SDS011;76244;53.434;14.484;2024-03-23T00:57:20;16.20;;;3.50;;
85797;SDS011;76244;53.434;14.484;2024-03-23T00:59:52;15.20;;;4.00;;
85797;SDS011;76244;53.434;14.484;2024-03-23T01:02:23;10.10;;;3.20;;
85797;SDS011;76244;53.434;14.484;2024-03-23T01:04:55;13.20;;;2.90;;
85797;SDS011;76244;53.434;14.484;2024-03-23T01:07:26;15.30;;;3.30;;
85797;SDS011;76244;53.434;14.484;2024-03-23T01:09:58;14.00;;;2.80;;
85797;SDS011;76244;53.434;14.484;2024-03-23T01:12:30;12.10;;;2.50;;
85797;SDS011;76244;53.434;14.484;2024-03-23T01:15:02;12.70;;;2.90;;
85797;SDS011;76244;53.434;14.484;2024-03-23T01:17:35;14.10;;;2.60;;
85797;SDS011;76244;53.434;14.484;2024-03-23T01:20:08;13.20;;;2.90;;
85797;SDS011;76244;53.434;14.484;2024-03-23T01:22:40;13.50;;;2.80;;
85797;SDS011;76244;53.434;14.484;2024-03-23T01:25:12;12.20;;;2.60;;
85797;SDS011;76244;53.434;14.484;2024-03-23T01:27:44;13.80;;;3.10;;
85797;SDS011;76244;53.434;14.484;2024-03-23T01:30:15;10.90;;;3.30;;
85797;SDS011;76244;53.434;14.484;2024-03-23T01:32:47;15.30;;;3.40;;
85797;SDS011;76244;53.434;14.484;2024-03-23T01:35:19;8.60;;;3.20;;
85797;SDS011;76244;53.434;14.484;2024-03-23T01:37:51;17.50;;;3.80;;
85797;SDS011;76244;53.434;14.484;2024-03-23T01:40:22;11.10;;;2.90;;
85797;SDS011;76244;53.434;14.484;2024-03-23T01:42:56;14.50;;;3.90;;
85797;SDS011;76244;53.434;14.484;2024-03-23T01:45:28;14.20;;;3.30;;
85797;SDS011;76244;53.434;14.484;2024-03-23T01:48:01;11.60;;;2.70;;
85797;SDS011;76244;53.434;14.484;2024-03-23T01:50:33;12.60;;;2.70;;
85797;SDS011;76244;53.434;14.484;2024-03-23T01:53:07;12.50;;;2.90;;
85797;SDS011;76244;53.434;14.484;2024-03-23T01:55:39;12.70;;;3.10;;
85797;SDS011;76244;53.434;14.484;2024-03-23T01:58:10;14.60;;;2.50;;
85797;SDS011;76244;53.434;14.484;2024-03-23T02:00:42;8.00;;;2.40;;
85797;SDS011;76244;53.434;14.484;2024-03-23T02:03:23;16.60;;;2.80;;
85797;SDS011;76244;53.434;14.484;2024-03-23T02:05:55;9.10;;;2.60;;
85797;SDS011;76244;53.434;14.484;2024-03-23T02:08:27;14.90;;;2.80;;
85797;SDS011;76244;53.434;14.484;2024-03-23T02:11:00;12.50;;;3.00;;
85797;SDS011;76244;53.434;14.484;2024-03-23T02:13:32;8.60;;;2.40;;
85797;SDS011;76244;53.434;14.484;2024-03-23T02:16:04;10.20;;;2.40;;
85797;SDS011;76244;53.434;14.484;2024-03-23T02:18:36;10.20;;;2.90;;
85797;SDS011;76244;53.434;14.484;2024-03-23T02:21:08;9.30;;;2.50;;
85797;SDS011;76244;53.434;14.484;2024-03-23T02:23:39;10.50;;;2.40;;
85797;SDS011;76244;53.434;14.484;2024-03-23T02:26:11;14.20;;;3.10;;
85797;SDS011;76244;53.434;14.484;2024-03-23T02:28:44;14.80;;;2.90;;
85797;SDS011;76244;53.434;14.484;2024-03-23T02:31:15;14.00;;;3.20;;
85797;SDS011;76244;53.434;14.484;2024-03-23T02:33:47;12.10;;;2.50;;
85797;SDS011;76244;53.434;14.484;2024-03-23T02:36:18;18.00;;;3.80;;
85797;SDS011;76244;53.434;14.484;2024-03-23T02:38:50;14.20;;;3.50;;
85797;SDS011;76244;53.434;14.484;2024-03-23T02:41:22;19.30;;;3.30;;
85797;SDS011;76244;53.434;14.484;2024-03-23T02:43:54;13.30;;;2.50;;
85797;SDS011;76244;53.434;14.484;2024-03-23T02:46:25;13.80;;;3.10;;
85797;SDS011;76244;53.434;14.484;2024-03-23T02:48:57;12.10;;;2.90;;
85797;SDS011;76244;53.434;14.484;2024-03-23T02:51:29;13.80;;;3.20;;
85797;SDS011;76244;53.434;14.484;2024-03-23T02:54:01;14.00;;;2.80;;
85797;SDS011;76244;53.434;14.484;2024-03-23T02:56:33;15.80;;;3.40;;
85797;SDS011;76244;53.434;14.484;2024-03-23T02:59:05;13.60;;;3.10;;
85797;SDS011;76244;53.434;14.484;2024-03-23T03:01:36;14.00;;;3.80;;
85797;SDS011;76244;53.434;14.484;2024-03-23T03:04:08;16.70;;;3.50;;
85797;SDS011;76244;53.434;14.484;2024-03-23T03:06:40;13.40;;;3.70;;
85797;SDS011;76244;53.434;14.484;2024-03-23T03:09:12;14.40;;;3.50;;
85797;SDS011;76244;53.434;14.484;2024-03-23T03:11:44;13.70;;;3.50;;
85797;SDS011;76244;53.434;14.484;2024-03-23T03:14:18;12.00;;;3.00;;
85797;SDS011;76244;53.434;14.484;2024-03-23T03:16:50;14.70;;;3.40;;
85797;SDS011;76244;53.434;14.484;2024-03-23T03:19:25;12.10;;;2.50;;
85797;SDS011;76244;53.434;14.484;2024-03-23T03:21:56;16.00;;;2.80;;
85797;SDS011;76244;53.434;14.484;2024-03-23T03:24:28;15.70;;;4.00;;
85797;SDS011;76244;53.434;14.484;2024-03-23T03:26:59;12.50;;;3.80;;
85797;SDS011;76244;53.434;14.484;2024-03-23T03:29:32;11.00;;;3.30;;
85797;SDS011;76244;53.434;14.484;2024-03-23T03:32:04;15.70;;;4.10;;
85797;SDS011;76244;53.434;14.484;2024-03-23T03:34:36;9.20;;;2.80;;
85797;SDS011;76244;53.434;14.484;2024-03-23T03:37:08;13.80;;;3.30;;
85797;SDS011;76244;53.434;14.484;2024-03-23T03:39:39;14.50;;;2.60;;
85797;SDS011;76244;53.434;14.484;2024-03-23T03:42:11;12.40;;;3.10;;
85797;SDS011;76244;53.434;14.484;2024-03-23T03:44:43;12.90;;;2.70;;
85797;SDS011;76244;53.434;14.484;2024-03-23T03:47:14;12.00;;;2.70;;
85797;SDS011;76244;53.434;14.484;2024-03-23T03:49:49;17.00;;;2.80;;
85797;SDS011;76244;53.434;14.484;2024-03-23T03:52:21;12.70;;;2.70;;
85797;SDS011;76244;53.434;14.484;2024-03-23T03:54:55;12.10;;;2.80;;
85797;SDS011;76244;53.434;14.484;2024-03-23T03:57:31;13.20;;;2.80;;
85797;SDS011;76244;53.434;14.484;2024-03-23T04:00:03;9.10;;;2.80;;
85797;SDS011;76244;53.434;14.484;2024-03-23T04:02:39;15.00;;;3.70;;
85797;SDS011;76244;53.434;14.484;2024-03-23T04:05:11;14.30;;;2.90;;
85797;SDS011;76244;53.434;14.484;2024-03-23T04:07:43;12.50;;;2.60;;
85797;SDS011;76244;53.434;14.484;2024-03-23T04:10:14;9.90;;;2.80;;
85797;SDS011;76244;53.434;14.484;2024-03-23T04:12:46;10.90;;;3.10;;
85797;SDS011;76244;53.434;14.484;2024-03-23T04:15:18;11.40;;;2.60;;
85797;SDS011;76244;53.434;14.484;2024-03-23T04:17:50;12.70;;;3.00;;
85797;SDS011;76244;53.434;14.484;2024-03-23T04:20:21;14.50;;;3.40;;
85797;SDS011;76244;53.434;14.484;2024-03-23T04:22:53;22.30;;;3.90;;
85797;SDS011;76244;53.434;14.484;2024-03-23T04:25:25;11.00;;;2.60;;
85797;SDS011;76244;53.434;14.484;2024-03-23T04:27:56;13.00;;;2.90;;
85797;SDS011;76244;53.434;14.484;2024-03-23T04:30:28;11.90;;;2.50;;
85797;SDS011;76244;53.434;14.484;2024-03-23T04:33:00;12.70;;;2.70;;
85797;SDS011;76244;53.434;14.484;2024-03-23T04:35:32;15.30;;;3.70;;
85797;SDS011;76244;53.434;14.484;2024-03-23T04:38:04;14.80;;;4.10;;
85797;SDS011;76244;53.434;14.484;2024-03-23T04:40:35;14.20;;;4.00;;
85797;SDS011;76244;53.434;14.484;2024-03-23T04:43:07;12.80;;;3.80;;
85797;SDS011;76244;53.434;14.484;2024-03-23T04:45:40;14.90;;;3.20;;
85797;SDS011;76244;53.434;14.484;2024-03-23T04:48:12;18.30;;;3.80;;
85797;SDS011;76244;53.434;14.484;2024-03-23T04:50:44;11.70;;;4.20;;
85797;SDS011;76244;53.434;14.484;2024-03-23T04:53:15;14.60;;;2.80;;
85797;SDS011;76244;53.434;14.484;2024-03-23T04:55:47;12.50;;;2.80;;
85797;SDS011;76244;53.434;14.484;2024-03-23T04:58:19;12.50;;;2.80;;
85797;SDS011;76244;53.434;14.484;2024-03-23T05:00:54;11.50;;;4.20;;
85797;SDS011;76244;53.434;14.484;2024-03-23T05:03:26;10.50;;;3.60;;
85797;SDS011;76244;53.434;14.484;2024-03-23T05:05:57;11.60;;;3.00;;
85797;SDS011;76244;53.434;14.484;2024-03-23T05:08:32;10.00;;;3.40;;
85797;SDS011;76244;53.434;14.484;2024-03-23T05:11:03;12.20;;;3.00;;
85797;SDS011;76244;53.434;14.484;2024-03-23T05:13:35;19.00;;;3.90;;
85797;SDS011;76244;53.434;14.484;2024-03-23T05:16:07;12.60;;;3.60;;
85797;SDS011;76244;53.434;14.484;2024-03-23T05:18:38;16.80;;;3.60;;
85797;SDS011;76244;53.434;14.484;2024-03-23T05:21:10;16.00;;;3.60;;
85797;SDS011;76244;53.434;14.484;2024-03-23T05:23:42;15.40;;;3.00;;
85797;SDS011;76244;53.434;14.484;2024-03-23T05:26:13;10.00;;;2.70;;
85797;SDS011;76244;53.434;14.484;2024-03-23T05:28:45;12.80;;;2.80;;
85797;SDS011;76244;53.434;14.484;2024-03-23T05:31:23;13.90;;;3.00;;
85797;SDS011;76244;53.434;14.484;2024-03-23T05:33:55;14.20;;;4.80;;
85797;SDS011;76244;53.434;14.484;2024-03-23T05:36:27;11.40;;;2.70;;
85797;SDS011;76244;53.434;14.484;2024-03-23T05:38:59;10.10;;;2.90;;
85797;SDS011;76244;53.434;14.484;2024-03-23T05:41:31;12.30;;;3.00;;
85797;SDS011;76244;53.434;14.484;2024-03-23T05:44:04;10.30;;;2.70;;
85797;SDS011;76244;53.434;14.484;2024-03-23T05:46:36;9.70;;;3.20;;
85797;SDS011;76244;53.434;14.484;2024-03-23T05:49:08;11.50;;;2.60;;
85797;SDS011;76244;53.434;14.484;2024-03-23T05:51:40;10.40;;;2.70;;
85797;SDS011;76244;53.434;14.484;2024-03-23T05:54:11;12.70;;;2.50;;
85797;SDS011;76244;53.434;14.484;2024-03-23T05:56:43;10.30;;;2.20;;
85797;SDS011;76244;53.434;14.484;2024-03-23T05:59:15;7.50;;;2.00;;
85797;SDS011;76244;53.434;14.484;2024-03-23T06:01:47;7.80;;;1.90;;
85797;SDS011;76244;53.434;14.484;2024-03-23T06:04:18;6.00;;;1.80;;
85797;SDS011;76244;53.434;14.484;2024-03-23T06:06:51;11.00;;;1.80;;
85797;SDS011;76244;53.434;14.484;2024-03-23T06:09:23;9.30;;;2.20;;
85797;SDS011;76244;53.434;14.484;2024-03-23T06:11:55;10.10;;;2.20;;
85797;SDS011;76244;53.434;14.484;2024-03-23T06:14:26;8.10;;;1.90;;
85797;SDS011;76244;53.434;14.484;2024-03-23T06:16:58;5.30;;;1.20;;
85797;SDS011;76244;53.434;14.484;2024-03-23T06:19:30;7.50;;;1.80;;
85797;SDS011;76244;53.434;14.484;2024-03-23T06:22:02;8.00;;;1.70;;
85797;SDS011;76244;53.434;14.484;2024-03-23T06:24:35;6.60;;;1.40;;
85797;SDS011;76244;53.434;14.484;2024-03-23T06:27:07;7.20;;;1.60;;
85797;SDS011;76244;53.434;14.484;2024-03-23T06:29:38;7.30;;;2.60;;
85797;SDS011;76244;53.434;14.484;2024-03-23T06:32:11;5.20;;;1.30;;
85797;SDS011;76244;53.434;14.484;2024-03-23T06:34:42;5.40;;;1.70;;
85797;SDS011;76244;53.434;14.484;2024-03-23T06:37:14;4.50;;;1.40;;
85797;SDS011;76244;53.434;14.484;2024-03-23T06:39:46;9.40;;;1.60;;
85797;SDS011;76244;53.434;14.484;2024-03-23T06:42:18;4.80;;;1.40;;
85797;SDS011;76244;53.434;14.484;2024-03-23T06:44:50;6.40;;;2.10;;
85797;SDS011;76244;53.434;14.484;2024-03-23T06:47:22;4.40;;;1.30;;
85797;SDS011;76244;53.434;14.484;2024-03-23T06:49:56;8.90;;;1.70;;
85797;SDS011;76244;53.434;14.484;2024-03-23T06:52:30;7.40;;;1.60;;
85797;SDS011;76244;53.434;14.484;2024-03-23T06:55:03;7.30;;;1.80;;
85797;SDS011;76244;53.434;14.484;2024-03-23T06:57:36;8.60;;;1.70;;
85797;SDS011;76244;53.434;14.484;2024-03-23T07:00:08;8.10;;;1.80;;
85797;SDS011;76244;53.434;14.484;2024-03-23T07:02:42;6.10;;;1.80;;
85797;SDS011;76244;53.434;14.484;2024-03-23T07:05:14;6.60;;;2.00;;
85797;SDS011;76244;53.434;14.484;2024-03-23T07:07:46;7.20;;;2.00;;
85797;SDS011;76244;53.434;14.484;2024-03-23T07:10:17;6.60;;;1.80;;
85797;SDS011;76244;53.434;14.484;2024-03-23T07:12:49;8.30;;;2.20;;
85797;SDS011;76244;53.434;14.484;2024-03-23T07:15:20;7.80;;;1.90;;
85797;SDS011;76244;53.434;14.484;2024-03-23T07:17:52;5.70;;;1.70;;
85797;SDS011;76244;53.434;14.484;2024-03-23T07:20:23;7.70;;;2.10;;
85797;SDS011;76244;53.434;14.484;2024-03-23T07:22:55;9.50;;;2.70;;
85797;SDS011;76244;53.434;14.484;2024-03-23T07:25:27;6.80;;;1.90;;
85797;SDS011;76244;53.434;14.484;2024-03-23T07:28:00;8.50;;;2.60;;
85797;SDS011;76244;53.434;14.484;2024-03-23T07:30:32;10.40;;;2.10;;
85797;SDS011;76244;53.434;14.484;2024-03-23T07:33:04;6.40;;;2.40;;
85797;SDS011;76244;53.434;14.484;2024-03-23T07:35:36;10.60;;;2.30;;
85797;SDS011;76244;53.434;14.484;2024-03-23T07:38:08;7.90;;;1.80;;
85797;SDS011;76244;53.434;14.484;2024-03-23T07:40:39;8.30;;;2.70;;
85797;SDS011;76244;53.434;14.484;2024-03-23T07:43:11;6.70;;;1.90;;
85797;SDS011;76244;53.434;14.484;2024-03-23T07:45:42;7.80;;;2.00;;
85797;SDS011;76244;53.434;14.484;2024-03-23T07:48:21;10.90;;;2.40;;
85797;SDS011;76244;53.434;14.484;2024-03-23T07:51:00;7.80;;;2.40;;
85797;SDS011;76244;53.434;14.484;2024-03-23T07:53:33;9.80;;;2.80;;
85797;SDS011;76244;53.434;14.484;2024-03-23T07:56:07;9.70;;;2.60;;
85797;SDS011;76244;53.434;14.484;2024-03-23T07:58:39;10.10;;;2.60;;
85797;SDS011;76244;53.434;14.484;2024-03-23T08:01:11;11.00;;;4.10;;
85797;SDS011;76244;53.434;14.484;2024-03-23T08:03:45;6.20;;;2.10;;
85797;SDS011;76244;53.434;14.484;2024-03-23T08:06:19;8.10;;;2.40;;
85797;SDS011;76244;53.434;14.484;2024-03-23T08:08:55;10.40;;;2.80;;
85797;SDS011;76244;53.434;14.484;2024-03-23T08:11:29;9.90;;;2.50;;
85797;SDS011;76244;53.434;14.484;2024-03-23T08:14:03;9.30;;;2.40;;
85797;SDS011;76244;53.434;14.484;2024-03-23T08:16:35;12.20;;;2.20;;
85797;SDS011;76244;53.434;14.484;2024-03-23T08:19:06;10.20;;;2.50;;
85797;SDS011;76244;53.434;14.484;2024-03-23T08:21:38;10.90;;;2.40;;
85797;SDS011;76244;53.434;14.484;2024-03-23T08:24:10;7.80;;;2.30;;
85797;SDS011;76244;53.434;14.484;2024-03-23T08:26:41;8.60;;;2.50;;
85797;SDS011;76244;53.434;14.484;2024-03-23T08:29:13;12.10;;;2.60;;
85797;SDS011;76244;53.434;14.484;2024-03-23T08:31:48;15.60;;;3.40;;
85797;SDS011;76244;53.434;14.484;2024-03-23T08:34:19;16.30;;;2.80;;
85797;SDS011;76244;53.434;14.484;2024-03-23T08:36:51;12.30;;;3.10;;
85797;SDS011;76244;53.434;14.484;2024-03-23T08:39:23;18.90;;;3.10;;
85797;SDS011;76244;53.434;14.484;2024-03-23T08:41:55;15.10;;;3.50;;
85797;SDS011;76244;53.434;14.484;2024-03-23T08:44:26;12.30;;;2.50;;
85797;SDS011;76244;53.434;14.484;2024-03-23T08:46:58;17.50;;;3.10;;
85797;SDS011;76244;53.434;14.484;2024-03-23T08:49:30;20.00;;;3.50;;
85797;SDS011;76244;53.434;14.484;2024-03-23T08:52:02;19.00;;;3.70;;
85797;SDS011;76244;53.434;14.484;2024-03-23T08:54:34;15.80;;;3.40;;
85797;SDS011;76244;53.434;14.484;2024-03-23T08:57:05;13.00;;;4.10;;
85797;SDS011;76244;53.434;14.484;2024-03-23T08:59:38;18.60;;;4.30;;
85797;SDS011;76244;53.434;14.484;2024-03-23T09:02:10;12.80;;;2.90;;
85797;SDS011;76244;53.434;14.484;2024-03-23T09:04:42;9.60;;;2.90;;
85797;SDS011;76244;53.434;14.484;2024-03-23T09:07:14;12.50;;;2.80;;
85797;SDS011;76244;53.434;14.484;2024-03-23T09:09:45;18.60;;;3.30;;
85797;SDS011;76244;53.434;14.484;2024-03-23T09:12:17;10.90;;;2.70;;
85797;SDS011;76244;53.434;14.484;2024-03-23T09:14:48;21.40;;;3.70;;
85797;SDS011;76244;53.434;14.484;2024-03-23T09:17:21;13.30;;;3.10;;
85797;SDS011;76244;53.434;14.484;2024-03-23T09:19:52;11.10;;;3.00;;
85797;SDS011;76244;53.434;14.484;2024-03-23T09:22:24;15.50;;;3.60;;
85797;SDS011;76244;53.434;14.484;2024-03-23T09:24:55;14.90;;;3.30;;
85797;SDS011;76244;53.434;14.484;2024-03-23T09:27:27;16.40;;;3.40;;
85797;SDS011;76244;53.434;14.484;2024-03-23T09:29:59;17.90;;;3.80;;
85797;SDS011;76244;53.434;14.484;2024-03-23T09:32:30;14.60;;;3.20;;
85797;SDS011;76244;53.434;14.484;2024-03-23T09:35:02;19.20;;;4.10;;
85797;SDS011;76244;53.434;14.484;2024-03-23T09:37:34;13.70;;;3.00;;
85797;SDS011;76244;53.434;14.484;2024-03-23T09:40:07;16.60;;;2.90;;
85797;SDS011;76244;53.434;14.484;2024-03-23T09:42:41;13.30;;;3.20;;
85797;SDS011;76244;53.434;14.484;2024-03-23T09:45:21;11.90;;;3.20;;
85797;SDS011;76244;53.434;14.484;2024-03-23T09:47:56;15.40;;;3.90;;
85797;SDS011;76244;53.434;14.484;2024-03-23T09:50:28;14.20;;;2.10;;
85797;SDS011;76244;53.434;14.484;2024-03-23T09:53:00;8.40;;;1.60;;
85797;SDS011;76244;53.434;14.484;2024-03-23T09:55:32;6.20;;;1.80;;
85797;SDS011;76244;53.434;14.484;2024-03-23T09:58:04;6.40;;;1.40;;
85797;SDS011;76244;53.434;14.484;2024-03-23T10:00:37;7.40;;;2.20;;
85797;SDS011;76244;53.434;14.484;2024-03-23T10:03:09;8.80;;;2.10;;
85797;SDS011;76244;53.434;14.484;2024-03-23T10:05:40;9.50;;;2.60;;
85797;SDS011;76244;53.434;14.484;2024-03-23T10:08:19;6.80;;;1.80;;
85797;SDS011;76244;53.434;14.484;2024-03-23T10:10:50;7.60;;;1.70;;
85797;SDS011;76244;53.434;14.484;2024-03-23T10:13:25;5.00;;;1.20;;
85797;SDS011;76244;53.434;14.484;2024-03-23T10:15:58;5.90;;;1.40;;
85797;SDS011;76244;53.434;14.484;2024-03-23T10:18:30;7.70;;;1.40;;
85797;SDS011;76244;53.434;14.484;2024-03-23T10:21:09;8.90;;;1.80;;
85797;SDS011;76244;53.434;14.484;2024-03-23T10:23:42;7.50;;;1.80;;
85797;SDS011;76244;53.434;14.484;2024-03-23T10:26:16;6.90;;;1.80;;
85797;SDS011;76244;53.434;14.484;2024-03-23T10:28:53;10.20;;;1.70;;
85797;SDS011;76244;53.434;14.484;2024-03-23T10:31:29;7.40;;;1.60;;
85797;SDS011;76244;53.434;14.484;2024-03-23T10:34:02;7.60;;;1.90;;
85797;SDS011;76244;53.434;14.484;2024-03-23T10:36:34;6.40;;;1.20;;
85797;SDS011;76244;53.434;14.484;2024-03-23T10:39:10;4.90;;;1.50;;
85797;SDS011;76244;53.434;14.484;2024-03-23T10:41:46;6.00;;;1.40;;
85797;SDS011;76244;53.434;14.484;2024-03-23T10:44:19;8.30;;;1.80;;
85797;SDS011;76244;53.434;14.484;2024-03-23T10:46:58;10.00;;;2.00;;
85797;SDS011;76244;53.434;14.484;2024-03-23T10:49:31;9.50;;;2.50;;
85797;SDS011;76244;53.434;14.484;2024-03-23T10:52:04;8.90;;;2.30;;
85797;SDS011;76244;53.434;14.484;2024-03-23T10:54:36;16.90;;;3.20;;
85797;SDS011;76244;53.434;14.484;2024-03-23T10:57:13;13.50;;;4.00;;
85797;SDS011;76244;53.434;14.484;2024-03-23T10:59:47;9.90;;;2.50;;
85797;SDS011;76244;53.434;14.484;2024-03-23T11:02:20;17.10;;;2.30;;
85797;SDS011;76244;53.434;14.484;2024-03-23T11:04:52;9.10;;;2.40;;
85797;SDS011;76244;53.434;14.484;2024-03-23T11:07:30;10.90;;;2.20;;
85797;SDS011;76244;53.434;14.484;2024-03-23T11:10:03;12.70;;;2.40;;
85797;SDS011;76244;53.434;14.484;2024-03-23T11:12:59;10.50;;;2.70;;
85797;SDS011;76244;53.434;14.484;2024-03-23T11:15:53;10.60;;;4.00;;
85797;SDS011;76244;53.434;14.484;2024-03-23T11:18:25;15.10;;;4.80;;
85797;SDS011;76244;53.434;14.484;2024-03-23T11:20:56;15.00;;;3.40;;
85797;SDS011;76244;53.434;14.484;2024-03-23T11:23:28;11.50;;;3.50;;
85797;SDS011;76244;53.434;14.484;2024-03-23T11:26:00;12.30;;;3.20;;
85797;SDS011;76244;53.434;14.484;2024-03-23T11:28:32;10.00;;;3.00;;
85797;SDS011;76244;53.434;14.484;2024-03-23T11:31:10;14.70;;;3.00;;
85797;SDS011;76244;53.434;14.484;2024-03-23T11:33:41;11.30;;;2.80;;
85797;SDS011;76244;53.434;14.484;2024-03-23T11:36:19;16.60;;;3.30;;
85797;SDS011;76244;53.434;14.484;2024-03-23T11:38:51;11.70;;;3.20;;
85797;SDS011;76244;53.434;14.484;2024-03-23T11:41:22;15.40;;;3.40;;
85797;SDS011;76244;53.434;14.484;2024-03-23T11:43:55;10.70;;;2.40;;
85797;SDS011;76244;53.434;14.484;2024-03-23T11:46:26;11.90;;;3.50;;
85797;SDS011;76244;53.434;14.484;2024-03-23T11:48:58;11.80;;;2.80;;
85797;SDS011;76244;53.434;14.484;2024-03-23T11:51:30;13.20;;;3.00;;
85797;SDS011;76244;53.434;14.484;2024-03-23T11:54:08;13.00;;;2.50;;
85797;SDS011;76244;53.434;14.484;2024-03-23T11:56:40;13.10;;;3.40;;
85797;SDS011;76244;53.434;14.484;2024-03-23T11:59:33;12.10;;;2.70;;
85797;SDS011;76244;53.434;14.484;2024-03-23T12:02:08;11.80;;;2.60;;
85797;SDS011;76244;53.434;14.484;2024-03-23T12:04:40;13.70;;;2.60;;
85797;SDS011;76244;53.434;14.484;2024-03-23T12:07:13;16.10;;;3.10;;
85797;SDS011;76244;53.434;14.484;2024-03-23T12:09:48;9.80;;;2.40;;
85797;SDS011;76244;53.434;14.484;2024-03-23T12:15:06;7.80;;;2.20;;
85797;SDS011;76244;53.434;14.484;2024-03-23T12:17:39;10.30;;;2.40;;
85797;SDS011;76244;53.434;14.484;2024-03-23T12:20:10;14.00;;;2.90;;
85797;SDS011;76244;53.434;14.484;2024-03-23T12:22:42;11.20;;;3.20;;
85797;SDS011;76244;53.434;14.484;2024-03-23T12:25:15;12.20;;;2.90;;
85797;SDS011;76244;53.434;14.484;2024-03-23T12:27:47;16.20;;;2.60;;
85797;SDS011;76244;53.434;14.484;2024-03-23T12:30:18;15.00;;;3.50;;
85797;SDS011;76244;53.434;14.484;2024-03-23T12:32:50;15.90;;;3.50;;
85797;SDS011;76244;53.434;14.484;2024-03-23T12:35:22;12.90;;;3.50;;
85797;SDS011;76244;53.434;14.484;2024-03-23T12:37:54;10.90;;;3.00;;
85797;SDS011;76244;53.434;14.484;2024-03-23T12:40:26;12.70;;;3.10;;
85797;SDS011;76244;53.434;14.484;2024-03-23T12:42:57;10.40;;;2.70;;
85797;SDS011;76244;53.434;14.484;2024-03-23T12:45:29;11.10;;;2.70;;
85797;SDS011;76244;53.434;14.484;2024-03-23T12:48:01;13.70;;;3.20;;
85797;SDS011;76244;53.434;14.484;2024-03-23T12:50:33;10.70;;;2.40;;
85797;SDS011;76244;53.434;14.484;2024-03-23T12:53:04;11.00;;;2.50;;
85797;SDS011;76244;53.434;14.484;2024-03-23T12:55:36;12.50;;;2.30;;
85797;SDS011;76244;53.434;14.484;2024-03-23T12:58:08;11.00;;;2.90;;
85797;SDS011;76244;53.434;14.484;2024-03-23T13:00:39;15.60;;;2.30;;
85797;SDS011;76244;53.434;14.484;2024-03-23T13:03:13;11.60;;;2.80;;
85797;SDS011;76244;53.434;14.484;2024-03-23T13:05:47;9.30;;;2.20;;
85797;SDS011;76244;53.434;14.484;2024-03-23T13:08:22;15.90;;;2.50;;
85797;SDS011;76244;53.434;14.484;2024-03-23T13:10:54;11.10;;;2.50;;
85797;SDS011;76244;53.434;14.484;2024-03-23T13:13:26;12.40;;;2.50;;
85797;SDS011;76244;53.434;14.484;2024-03-23T13:15:57;11.60;;;2.50;;
85797;SDS011;76244;53.434;14.484;2024-03-23T13:18:29;16.50;;;2.40;;
85797;SDS011;76244;53.434;14.484;2024-03-23T13:21:02;10.80;;;2.70;;
85797;SDS011;76244;53.434;14.484;2024-03-23T13:23:35;10.50;;;2.90;;
85797;SDS011;76244;53.434;14.484;2024-03-23T13:26:10;14.00;;;3.00;;
85797;SDS011;76244;53.434;14.484;2024-03-23T13:28:45;11.90;;;2.50;;
85797;SDS011;76244;53.434;14.484;2024-03-23T13:31:17;13.20;;;2.60;;
85797;SDS011;76244;53.434;14.484;2024-03-23T13:33:49;10.80;;;2.10;;
85797;SDS011;76244;53.434;14.484;2024-03-23T13:36:21;11.50;;;2.90;;
85797;SDS011;76244;53.434;14.484;2024-03-23T13:38:54;14.50;;;2.40;;
85797;SDS011;76244;53.434;14.484;2024-03-23T13:41:26;9.90;;;2.20;;
85797;SDS011;76244;53.434;14.484;2024-03-23T13:43:57;14.70;;;2.60;;
85797;SDS011;76244;53.434;14.484;2024-03-23T13:46:29;8.80;;;2.10;;
85797;SDS011;76244;53.434;14.484;2024-03-23T13:49:00;15.30;;;2.50;;
85797;SDS011;76244;53.434;14.484;2024-03-23T13:51:32;13.80;;;2.50;;
85797;SDS011;76244;53.434;14.484;2024-03-23T13:54:04;11.80;;;2.20;;
85797;SDS011;76244;53.434;14.484;2024-03-23T13:56:36;9.50;;;2.40;;
85797;SDS011;76244;53.434;14.484;2024-03-23T13:59:07;11.20;;;2.60;;
85797;SDS011;76244;53.434;14.484;2024-03-23T14:01:39;10.70;;;2.40;;
85797;SDS011;76244;53.434;14.484;2024-03-23T14:04:10;11.60;;;1.90;;
85797;SDS011;76244;53.434;14.484;2024-03-23T14:06:42;11.50;;;2.00;;
85797;SDS011;76244;53.434;14.484;2024-03-23T14:09:14;14.50;;;2.60;;
85797;SDS011;76244;53.434;14.484;2024-03-23T14:11:51;15.70;;;2.70;;
85797;SDS011;76244;53.434;14.484;2024-03-23T14:14:23;12.10;;;2.30;;
85797;SDS011;76244;53.434;14.484;2024-03-23T14:16:54;12.70;;;2.00;;
85797;SDS011;76244;53.434;14.484;2024-03-23T14:19:26;10.40;;;2.10;;
85797;SDS011;76244;53.434;14.484;2024-03-23T14:21:57;9.60;;;1.90;;
85797;SDS011;76244;53.434;14.484;2024-03-23T14:24:30;10.20;;;2.10;;
85797;SDS011;76244;53.434;14.484;2024-03-23T14:27:04;7.50;;;2.00;;
85797;SDS011;76244;53.434;14.484;2024-03-23T14:29:36;9.40;;;2.90;;
85797;SDS011;76244;53.434;14.484;2024-03-23T14:32:07;12.00;;;2.60;;
85797;SDS011;76244;53.434;14.484;2024-03-23T14:34:39;11.10;;;2.20;;
85797;SDS011;76244;53.434;14.484;2024-03-23T14:37:11;13.10;;;3.80;;
85797;SDS011;76244;53.434;14.484;2024-03-23T14:39:44;10.90;;;2.70;;
85797;SDS011;76244;53.434;14.484;2024-03-23T14:42:16;11.20;;;2.20;;
85797;SDS011;76244;53.434;14.484;2024-03-23T14:44:47;11.20;;;2.20;;
85797;SDS011;76244;53.434;14.484;2024-03-23T14:47:19;12.10;;;2.40;;
85797;SDS011;76244;53.434;14.484;2024-03-23T14:49:51;10.10;;;2.20;;
85797;SDS011;76244;53.434;14.484;2024-03-23T14:52:22;13.30;;;3.10;;
85797;SDS011;76244;53.434;14.484;2024-03-23T14:54:54;12.40;;;3.10;;
85797;SDS011;76244;53.434;14.484;2024-03-23T14:57:26;7.80;;;2.20;;
85797;SDS011;76244;53.434;14.484;2024-03-23T14:59:58;13.20;;;2.40;;
85797;SDS011;76244;53.434;14.484;2024-03-23T15:02:30;9.00;;;2.20;;
85797;SDS011;76244;53.434;14.484;2024-03-23T15:05:07;11.60;;;2.50;;
85797;SDS011;76244;53.434;14.484;2024-03-23T15:07:39;11.00;;;2.10;;
85797;SDS011;76244;53.434;14.484;2024-03-23T15:10:12;14.20;;;2.70;;
85797;SDS011;76244;53.434;14.484;2024-03-23T15:12:47;8.30;;;1.90;;
85797;SDS011;76244;53.434;14.484;2024-03-23T15:15:19;11.00;;;2.60;;
85797;SDS011;76244;53.434;14.484;2024-03-23T15:17:51;15.50;;;2.60;;
85797;SDS011;76244;53.434;14.484;2024-03-23T15:20:22;10.50;;;2.00;;
85797;SDS011;76244;53.434;14.484;2024-03-23T15:22:54;12.60;;;3.00;;
85797;SDS011;76244;53.434;14.484;2024-03-23T15:25:26;9.80;;;2.80;;
85797;SDS011;76244;53.434;14.484;2024-03-23T15:27:57;14.80;;;2.90;;
85797;SDS011;76244;53.434;14.484;2024-03-23T15:30:40;7.60;;;1.70;;
85797;SDS011;76244;53.434;14.484;2024-03-23T15:33:12;4.30;;;1.30;;
85797;SDS011;76244;53.434;14.484;2024-03-23T15:35:44;7.80;;;1.60;;
85797;SDS011;76244;53.434;14.484;2024-03-23T15:38:15;6.60;;;1.40;;
85797;SDS011;76244;53.434;14.484;2024-03-23T15:40:51;6.30;;;1.50;;
85797;SDS011;76244;53.434;14.484;2024-03-23T15:43:23;9.90;;;2.20;;
85797;SDS011;76244;53.434;14.484;2024-03-23T15:45:55;6.00;;;1.70;;
85797;SDS011;76244;53.434;14.484;2024-03-23T15:48:28;5.20;;;1.30;;
85797;SDS011;76244;53.434;14.484;2024-03-23T15:51:03;6.30;;;1.60;;
85797;SDS011;76244;53.434;14.484;2024-03-23T15:53:35;6.90;;;2.00;;